Time;durP1;ratioP1;P1;durP2;ratioP2;P2;SDS_P1;SDS_P2;PMS_P1;PMS_P2;Temp;Humidity;BMP_temperature;BMP_pressure;BME280_temperature;BME280_humidity;BME280_pressure;Samples;Min_cycle;Max_cycle;Signal;HPM_P1;HPM_P2
2023/09/13 01:50:19;;;;;;;;;;;;;;;17.99;71.81;98852.77;108337;1257;94486;31
2023/09/13 02:05:50;;;;;;;;;;;;;;;17.83;71.70;98863.02;108419;1261;93748;-93
2023/09/13 03:36:32;;;;;;;;;;;;;;;;;;;;;
2023/09/13 04:01:04;;;;;;;;;;;;;;;16.81;72.22;98855.16;108274;1261;95401;-91
2023/09/13 04:03:36;;;;;;;;;;;;;;;16.80;72.15;98853.01;105698;1268;96634;-91
2023/09/13 04:06:46;;;;;;;;;;;;;;;16.81;72.25;98852.01;105769;1267;110015;-90
2023/09/13 04:09:17;;;;;;;;;;;;;;;16.81;72.14;98855.49;106119;1271;96513;-90
2023/09/13 04:11:46;;;;;;;;;;;;;;;16.79;72.21;98851.76;105888;1273;108694;-90
2023/09/13 04:14:14;;;;;;;;;;;;;;;16.77;72.17;98851.98;105758;1267;96542;-90
2023/09/13 04:16:43;;;;;;;;;;;;;;;16.75;72.22;98856.83;105766;1273;96526;-91
2023/09/13 04:19:12;;;;;;;;;;;;;;;16.74;72.30;98858.53;105762;1273;109535;-89
2023/09/13 04:21:40;;;;;;;;;;;;;;;16.75;72.48;98864.71;105569;1273;96641;-91
2023/09/13 04:24:08;;;;;;;;;;;;;;;16.74;72.29;98864.58;105509;1273;108023;-91
2023/09/13 04:26:36;;;;;;;;;;;;;;;16.75;72.39;98862.51;105530;1273;96628;-90
2023/09/13 04:29:05;;;;;;;;;;;;;;;16.76;72.30;98862.20;105890;1267;96542;-90
2023/09/13 04:31:34;;;;;;;;;;;;;;;16.77;72.31;98862.02;105859;1270;109948;-92
2023/09/13 04:34:03;;;;;;;;;;;;;;;16.76;72.44;98859.02;105890;1267;96507;-91
2023/09/13 04:36:31;;;;;;;;;;;;;;;16.79;72.46;98859.10;106569;1273;107639;-90
2023/09/13 04:38:59;;;;;;;;;;;;;;;16.82;72.41;98864.88;105938;1272;96628;-92
2023/09/13 04:41:28;;;;;;;;;;;;;;;16.85;72.48;98868.35;105862;1273;96660;-92
2023/09/13 04:43:55;;;;;;;;;;;;;;;16.84;72.44;98867.91;105824;1272;109087;-92
2023/09/13 04:46:24;;;;;;;;;;;;;;;16.85;72.44;98864.96;105888;1268;96715;-91
2023/09/13 04:48:53;;;;;;;;;;;;;;;16.88;72.57;98865.53;105496;1276;106468;-92
2023/09/13 04:51:21;;;;;;;;;;;;;;;16.93;72.61;98865.02;105359;1269;96609;-90
2023/09/13 04:53:50;;;;;;;;;;;;;;;16.97;72.54;98865.88;105665;1272;96615;-90
2023/09/13 04:56:18;;;;;;;;;;;;;;;16.99;72.59;98864.62;105773;1267;110078;-90
2023/09/13 04:58:47;;;;;;;;;;;;;;;17.03;72.60;98864.61;106047;1273;97588;-90
2023/09/13 05:01:16;;;;;;;;;;;;;;;17.05;72.63;98865.23;106050;1272;107690;-90
2023/09/13 05:03:52;;;;;;;;;;;;;;;17.09;72.78;98858.91;106104;1267;96537;-91
2023/09/13 05:06:52;;;;;;;;;;;;;;;17.18;72.65;98861.83;106328;1272;96428;-89
2023/09/13 05:09:22;;;;;;;;;;;;;;;17.24;72.81;98858.29;106217;1275;108592;-90
2023/09/13 05:11:50;;;;;;;;;;;;;;;17.32;72.77;98859.06;106135;1271;95663;-90
2023/09/13 05:14:18;;;;;;;;;;;;;;;17.40;72.84;98860.17;106144;1268;106646;-90
2023/09/13 05:16:46;;;;;;;;;;;;;;;17.49;72.90;98862.14;106164;1273;96481;-92
2023/09/13 05:19:18;;;;;;;;;;;;;;;17.58;72.95;98864.23;105849;1275;96567;-91
2023/09/13 05:21:48;;;;;;;;;;;;;;;17.67;73.08;98860.70;105953;1273;109895;-91
2023/09/13 05:24:16;;;;;;;;;;;;;;;17.76;73.08;98855.97;105854;1267;96669;-92
2023/09/13 05:26:44;;;;;;;;;;;;;;;17.86;73.11;98854.02;105982;1272;107718;-91
2023/09/13 05:29:13;;;;;;;;;;;;;;;17.96;73.24;98854.75;105771;1268;97816;-91
2023/09/13 05:31:42;;;;;;;;;;;;;;;18.07;73.22;98855.42;105872;1270;96536;-91
2023/09/13 05:34:10;;;;;;;;;;;;;;;18.17;73.24;98855.96;106208;1267;109891;-90
2023/09/13 05:36:41;;;;;;;;;;;;;;;18.26;73.36;98856.92;106601;1273;96581;-91
2023/09/13 05:39:11;;;;;;;;;;;;;;;18.37;73.41;98854.98;106032;1273;107704;-91
2023/09/13 05:41:39;;;;;;;;;;;;;;;18.48;73.42;98854.74;106015;1267;97867;-91
2023/09/13 05:44:11;;;;;;;;;;;;;;;18.59;73.47;98850.10;105866;1271;96545;-92
2023/09/13 05:46:43;;;;;;;;;;;;;;;18.69;73.29;98848.81;105701;1273;110005;-90
2023/09/13 05:50:10;;;;;;;;;;;;;;;18.84;73.32;98849.91;105703;1268;96699;-91
2023/09/13 05:52:39;;;;;;;;;;;;;;;18.95;73.36;98849.13;105718;1267;107321;-91
2023/09/13 05:55:09;;;;;;;;;;;;;;;19.04;73.30;98844.02;105829;1270;96747;-90
2023/09/13 05:58:23;;;;;;;;;;;;;;;19.17;73.27;98846.67;105995;1273;96647;-90
2023/09/13 06:00:53;;;;;;;;;;;;;;;19.26;73.27;98846.79;105791;1273;109657;-90
2023/09/13 06:03:22;;;;;;;;;;;;;;;19.36;73.33;98848.83;105722;1273;95384;-91
2023/09/13 06:06:04;;;;;;;;;;;;;;;19.45;73.29;98851.30;105766;1273;108738;-90
2023/09/13 06:08:35;;;;;;;;;;;;;;;19.54;73.31;98850.42;105803;1273;96518;-89
2023/09/13 06:11:11;;;;;;;;;;;;;;;19.62;73.30;98851.49;105703;1267;95277;-90
2023/09/13 06:17:21;;;;;;;;;;;;;;;19.82;73.17;98853.80;105863;1272;96589;-93
2023/09/13 06:19:55;;;;;;;;;;;;;;;19.88;73.22;98852.16;105770;1273;107929;-93
2023/09/13 06:22:25;;;;;;;;;;;;;;;19.96;73.30;98855.20;105809;1273;96753;-93
2023/09/13 06:24:53;;;;;;;;;;;;;;;20.03;73.17;98854.71;105753;1273;97054;-90
2023/09/13 06:27:22;;;;;;;;;;;;;;;20.12;73.24;98858.92;105925;1273;109962;-91
2023/09/13 06:29:51;;;;;;;;;;;;;;;20.20;73.19;98858.59;105840;1267;96644;-92
2023/09/13 06:32:19;;;;;;;;;;;;;;;20.26;73.21;98859.50;105742;1268;107664;-91
2023/09/13 06:35:17;;;;;;;;;;;;;;;20.31;72.98;98853.83;105730;1273;96698;-90
2023/09/13 06:37:47;;;;;;;;;;;;;;;20.38;73.03;98856.55;105729;1273;96638;-90
2023/09/13 06:40:16;;;;;;;;;;;;;;;20.44;73.09;98856.18;105848;1268;109920;-91
2023/09/13 06:43:04;;;;;;;;;;;;;;;20.50;73.09;98859.79;105767;1267;96420;-91
2023/09/13 06:46:13;;;;;;;;;;;;;;;20.55;73.01;98856.73;105669;1273;109007;-92
2023/09/13 06:48:49;;;;;;;;;;;;;;;20.60;72.99;98861.36;105749;1269;96727;-91
2023/09/13 06:54:25;;;;;;;;;;;;;;;20.71;72.96;98865.84;106447;1272;108699;-90
2023/09/13 06:57:21;;;;;;;;;;;;;;;20.78;72.91;98864.73;106235;1272;96540;-91
2023/09/13 07:00:14;;;;;;;;;;;;;;;20.85;72.91;98868.09;105811;1268;107735;-90
2023/09/13 07:03:10;;;;;;;;;;;;;;;20.93;72.68;98871.76;105761;1269;96576;-91
2023/09/13 07:06:24;;;;;;;;;;;;;;;20.99;72.77;98874.22;105792;1273;96649;-92
2023/09/13 07:08:53;;;;;;;;;;;;;;;21.03;72.76;98874.45;105796;1275;109984;-94
2023/09/13 07:11:23;;;;;;;;;;;;;;;21.08;72.76;98880.39;106069;1272;96629;-93
2023/09/13 07:13:52;;;;;;;;;;;;;;;21.11;72.44;98882.27;105821;1270;107604;-91
2023/09/13 07:16:21;;;;;;;;;;;;;;;21.14;72.54;98884.55;105508;1275;96546;-91
2023/09/13 07:18:51;;;;;;;;;;;;;;;21.16;72.48;98887.17;105568;1267;97968;-92
2023/09/13 07:21:19;;;;;;;;;;;;;;;21.18;72.61;98884.91;105668;1271;109534;-92
2023/09/13 07:23:49;;;;;;;;;;;;;;;21.21;72.59;98891.11;105853;1272;96471;-90
2023/09/13 07:26:18;;;;;;;;;;;;;;;21.24;72.62;98893.43;105604;1268;107895;-93
2023/09/13 07:28:46;;;;;;;;;;;;;;;21.29;72.43;98896.59;105718;1268;96727;-91
2023/09/13 07:31:14;;;;;;;;;;;;;;;21.34;72.58;98895.00;105627;1267;96724;-90
2023/09/13 07:33:42;;;;;;;;;;;;;;;21.40;72.44;98896.08;105658;1272;109924;-91
2023/09/13 07:36:11;;;;;;;;;;;;;;;21.45;72.53;98897.75;105537;1268;96625;-90
2023/09/13 07:38:40;;;;;;;;;;;;;;;21.50;72.44;98899.27;105352;1276;106224;-91
2023/09/13 07:41:08;;;;;;;;;;;;;;;21.58;72.36;98899.33;105490;1273;96559;-91
2023/09/13 07:43:36;;;;;;;;;;;;;;;21.63;72.24;98898.88;105754;1272;96622;-90
2023/09/13 07:46:05;;;;;;;;;;;;;;;21.69;72.32;98896.46;105971;1272;110024;-91
2023/09/13 07:48:34;;;;;;;;;;;;;;;21.76;72.30;98897.52;105903;1273;97866;-91
2023/09/13 07:51:02;;;;;;;;;;;;;;;21.81;72.16;98901.16;105727;1268;107946;-91
2023/09/13 07:53:53;;;;;;;;;;;;;;;21.86;72.11;98898.06;105609;1273;96796;-90
2023/09/13 07:56:21;;;;;;;;;;;;;;;21.91;72.40;98899.61;105279;1268;96600;-90
2023/09/13 07:58:49;;;;;;;;;;;;;;;21.96;72.02;98900.44;105358;1273;109518;-91
2023/09/13 08:01:18;;;;;;;;;;;;;;;22.00;72.12;98899.02;105296;1273;96791;-90
2023/09/13 08:03:47;;;;;;;;;;;;;;;22.05;72.11;98900.25;105373;1275;107676;-90
2023/09/13 08:06:15;;;;;;;;;;;;;;;22.07;71.91;98899.44;105354;1276;96656;-90
2023/09/13 08:08:45;;;;;;;;;;;;;;;22.09;71.89;98898.37;105485;1274;96624;-91
2023/09/13 08:11:14;;;;;;;;;;;;;;;22.09;71.78;98902.45;105895;1267;110039;-90
2023/09/13 08:13:43;;;;;;;;;;;;;;;22.11;71.82;98902.42;105555;1273;96561;-90
2023/09/13 08:16:11;;;;;;;;;;;;;;;22.11;71.51;98898.81;105328;1267;107665;-90
2023/09/13 08:18:39;;;;;;;;;;;;;;;22.14;71.71;98895.22;105282;1276;96792;-90
2023/09/13 08:21:07;;;;;;;;;;;;;;;22.17;71.71;98897.00;105444;1270;96552;-90
2023/09/13 08:23:36;;;;;;;;;;;;;;;22.19;71.75;98892.20;105437;1270;110045;-90
2023/09/13 08:26:05;;;;;;;;;;;;;;;22.26;71.79;98894.77;105529;1272;96625;-91
2023/09/13 08:29:20;;;;;;;;;;;;;;;22.36;71.65;98897.04;105542;1272;109036;-91
2023/09/13 08:31:48;;;;;;;;;;;;;;;22.40;71.60;98894.86;105495;1268;96657;-90
2023/09/13 08:34:17;;;;;;;;;;;;;;;22.44;71.64;98896.50;105499;1274;96430;-91
2023/09/13 08:36:46;;;;;;;;;;;;;;;22.51;71.40;98892.66;105541;1267;109130;-91
2023/09/13 08:39:15;;;;;;;;;;;;;;;22.56;71.52;98894.71;105456;1272;96617;-91
2023/09/13 08:41:49;;;;;;;;;;;;;;;22.60;71.40;98892.73;105525;1273;107783;-91
2023/09/13 08:44:31;;;;;;;;;;;;;;;22.67;71.45;98888.48;105223;1273;96851;-90
2023/09/13 08:47:04;;;;;;;;;;;;;;;22.73;71.38;98890.08;105468;1275;96654;-90
2023/09/13 08:49:35;;;;;;;;;;;;;;;22.79;71.35;98890.21;105709;1270;110058;-90
2023/09/13 08:52:04;;;;;;;;;;;;;;;22.84;71.01;98892.21;105678;1275;97864;-88
2023/09/13 08:54:32;;;;;;;;;;;;;;;22.89;70.97;98889.09;105511;1272;107793;-90
2023/09/13 08:57:25;;;;;;;;;;;;;;;22.97;71.06;98890.48;105351;1273;96630;-91
2023/09/13 08:59:54;;;;;;;;;;;;;;;23.04;71.11;98886.52;105617;1273;96597;-90
2023/09/13 09:02:24;;;;;;;;;;;;;;;23.11;71.03;98883.56;105911;1273;109988;-89
2023/09/13 09:04:56;;;;;;;;;;;;;;;23.15;71.00;98880.48;105659;1267;96628;-92
2023/09/13 09:07:25;;;;;;;;;;;;;;;23.17;70.65;98878.83;105310;1275;107752;-90
2023/09/13 09:09:55;;;;;;;;;;;;;;;23.20;70.82;98878.23;105290;1271;97572;-90
2023/09/13 09:12:24;;;;;;;;;;;;;;;23.25;70.62;98876.27;105232;1272;96571;-91
2023/09/13 09:14:53;;;;;;;;;;;;;;;23.32;70.75;98872.27;105073;1272;110104;-90
2023/09/13 09:17:23;;;;;;;;;;;;;;;23.39;70.70;98869.89;105172;1272;97039;-89
2023/09/13 09:19:51;;;;;;;;;;;;;;;23.49;70.66;98869.94;105750;1272;107625;-90
2023/09/13 09:22:21;;;;;;;;;;;;;;;23.52;70.50;98869.36;105348;1267;98016;-90
2023/09/13 09:24:50;;;;;;;;;;;;;;;23.57;70.55;98865.48;105336;1273;96651;-90
2023/09/13 09:27:18;;;;;;;;;;;;;;;23.61;70.57;98867.20;105328;1271;110411;-90
2023/09/13 09:29:47;;;;;;;;;;;;;;;23.63;70.55;98869.42;105450;1268;97570;-90
2023/09/13 09:32:15;;;;;;;;;;;;;;;23.67;70.27;98868.84;105417;1268;105810;-91
2023/09/13 09:34:43;;;;;;;;;;;;;;;23.71;70.33;98871.05;105279;1273;97929;-90
2023/09/13 09:37:11;;;;;;;;;;;;;;;23.73;70.26;98868.59;105096;1274;96568;-90
2023/09/13 09:39:41;;;;;;;;;;;;;;;23.73;69.88;98868.93;104888;1268;110085;-90
2023/09/13 09:42:15;;;;;;;;;;;;;;;23.76;70.00;98872.45;105025;1270;96726;-90
2023/09/13 09:44:44;;;;;;;;;;;;;;;23.81;70.03;98869.34;105041;1273;107584;-91
2023/09/13 09:47:13;;;;;;;;;;;;;;;23.85;69.90;98866.42;105067;1272;96686;-90
2023/09/13 09:49:44;;;;;;;;;;;;;;;23.92;69.98;98865.90;105110;1273;96687;-91
2023/09/13 09:52:13;;;;;;;;;;;;;;;23.95;69.99;98863.33;105396;1273;110015;-91
2023/09/13 09:54:48;;;;;;;;;;;;;;;23.96;69.82;98862.02;105732;1273;96636;-90
2023/09/13 09:57:21;;;;;;;;;;;;;;;23.99;69.93;98859.85;105540;1276;107371;-90
2023/09/13 09:59:50;;;;;;;;;;;;;;;24.03;69.80;98857.41;105200;1276;96525;-92
2023/09/13 10:02:25;;;;;;;;;;;;;;;24.08;69.74;98853.44;105194;1274;96714;-91
2023/09/13 10:04:53;;;;;;;;;;;;;;;24.14;69.67;98856.02;105135;1272;110082;-91
2023/09/13 10:07:22;;;;;;;;;;;;;;;24.16;69.54;98849.55;104872;1276;96596;-91
2023/09/13 10:09:50;;;;;;;;;;;;;;;24.18;69.58;98849.67;105126;1273;107608;-90
2023/09/13 10:12:18;;;;;;;;;;;;;;;24.20;69.42;98846.25;105137;1272;97977;-92
2023/09/13 10:14:46;;;;;;;;;;;;;;;24.22;69.45;98843.49;104938;1274;96575;-91
2023/09/13 10:17:17;;;;;;;;;;;;;;;24.25;69.41;98841.31;104904;1283;109835;-90
2023/09/13 10:19:48;;;;;;;;;;;;;;;24.25;69.20;98838.43;105187;1273;96563;-90
2023/09/13 10:22:18;;;;;;;;;;;;;;;24.29;69.21;98841.54;105027;1273;108405;-91
2023/09/13 10:24:51;;;;;;;;;;;;;;;24.34;69.21;98838.27;105143;1273;96607;-91
2023/09/13 10:27:22;;;;;;;;;;;;;;;24.38;69.02;98840.45;105245;1273;96648;-90
2023/09/13 10:29:56;;;;;;;;;;;;;;;24.39;69.06;98841.76;105174;1271;109975;-90
2023/09/13 10:32:30;;;;;;;;;;;;;;;24.47;68.84;98838.58;105166;1273;96607;-90
2023/09/13 10:35:01;;;;;;;;;;;;;;;24.51;68.80;98835.23;104928;1274;107743;-91
2023/09/13 10:37:46;;;;;;;;;;;;;;;24.56;68.74;98833.56;105259;1273;96650;-91
2023/09/13 10:40:27;;;;;;;;;;;;;;;24.58;68.73;98829.85;105174;1276;96635;-92
2023/09/13 10:42:56;;;;;;;;;;;;;;;24.60;68.74;98831.77;104911;1285;110137;-91
2023/09/13 10:45:25;;;;;;;;;;;;;;;24.63;68.42;98825.70;105234;1273;97455;-90
2023/09/13 10:47:55;;;;;;;;;;;;;;;24.63;68.55;98831.90;105076;1273;107664;-90
